Time;durP1;ratioP1;P1;durP2;ratioP2;P2;SDS_P1;SDS_P2;PMS_P1;PMS_P2;Temp;Humidity;BMP_temperature;BMP_pressure;BME280_temperature;BME280_humidity;BME280_pressure;Samples;Min_cycle;Max_cycle;Signal;HPM_P1;HPM_P2
2022/09/13 00:00:40;;;;;;;1.33;1.13;;;;;;;11.67;100.00;99756.41;6297722;28;20052;-70
2022/09/13 00:03:41;;;;;;;;;;;;;;;11.60;100.00;99763.00;6313905;28;20044;-70
2022/09/13 00:06:41;;;;;;;1.33;1.13;;;;;;;11.57;100.00;99769.28;6299092;28;19927;-70
2022/09/13 00:09:42;;;;;;;1.42;1.25;;;;;;;11.50;100.00;99768.03;6297386;28;20157;-71
2022/09/13 00:12:43;;;;;;;1.58;1.30;;;;;;;11.52;100.00;99771.38;6298793;28;20048;-72
2022/09/13 00:15:51;;;;;;;3.80;1.38;;;;;;;11.48;100.00;99775.13;6298976;28;20098;-70
2022/09/13 00:18:53;;;;;;;1.65;1.40;;;;;;;11.47;100.00;99771.69;6298468;28;20044;-71
2022/09/13 00:21:53;;;;;;;1.90;1.70;;;;;;;11.51;100.00;99777.56;6298323;28;20044;-71
2022/09/13 00:24:54;;;;;;;3.03;1.50;;;;;;;11.48;100.00;99778.56;6298869;28;20404;-72
2022/09/13 00:27:57;;;;;;;1.75;1.52;;;;;;;11.51;100.00;99777.56;6297306;28;20051;-71
2022/09/13 00:31:00;;;;;;;2.95;1.42;;;;;;;11.46;100.00;99777.84;6296220;28;20110;-70
2022/09/13 00:34:01;;;;;;;1.50;1.40;;;;;;;11.31;100.00;99781.53;6297139;28;20497;-72
2022/09/13 00:37:02;;;;;;;1.75;1.30;;;;;;;11.35;100.00;99783.00;6297353;28;20079;-72
2022/09/13 00:40:03;;;;;;;2.03;1.70;;;;;;;11.25;100.00;99784.56;6297246;28;20050;-71
2022/09/13 00:43:05;;;;;;;2.43;1.57;;;;;;;11.14;100.00;99785.28;6297128;28;20462;-71
2022/09/13 00:46:06;;;;;;;1.63;1.38;;;;;;;11.27;100.00;99780.06;6297963;28;20565;-71
2022/09/13 00:49:23;;;;;;;1.30;1.20;;;;;;;11.29;100.00;99778.19;6296581;28;20048;-70
2022/09/13 00:52:27;;;;;;;1.40;1.30;;;;;;;11.27;100.00;99775.66;6297012;28;20051;-70
2022/09/13 00:55:34;;;;;;;1.63;1.40;;;;;;;11.20;100.00;99777.03;6297585;28;20040;-70
2022/09/13 00:58:38;;;;;;;1.52;1.27;;;;;;;11.07;100.00;99781.41;6297720;28;20041;-71
2022/09/13 01:01:46;;;;;;;2.13;1.58;;;;;;;11.06;100.00;99787.59;6330693;28;20745;-72
2022/09/13 01:04:49;;;;;;;1.63;1.38;;;;;;;11.08;100.00;99783.09;6297537;28;20071;-70
2022/09/13 01:07:50;;;;;;;1.90;1.30;;;;;;;11.12;100.00;99781.09;6297684;28;20469;-70
2022/09/13 01:10:53;;;;;;;1.75;1.25;;;;;;;11.07;100.00;99784.84;6296166;28;20040;-71
2022/09/13 01:13:56;;;;;;;2.45;1.80;;;;;;;11.04;100.00;99789.47;6295987;28;20519;-70
2022/09/13 01:16:56;;;;;;;1.50;1.40;;;;;;;11.00;100.00;99788.81;6297149;28;20041;-70
2022/09/13 01:19:59;;;;;;;2.17;1.52;;;;;;;10.97;100.00;99789.00;6295463;28;20047;-72
2022/09/13 01:23:38;;;;;;;2.97;1.98;;;;;;;10.92;100.00;99780.66;6296755;28;20068;-70
2022/09/13 01:27:20;;;;;;;1.70;1.60;;;;;;;10.85;100.00;99795.91;6296532;28;20049;-71
2022/09/13 01:30:23;;;;;;;1.63;1.52;;;;;;;10.92;100.00;99788.50;6297045;28;20076;-70
2022/09/13 01:33:44;;;;;;;4.43;1.83;;;;;;;10.87;100.00;99790.56;6295411;28;20463;-71
2022/09/13 01:37:06;;;;;;;2.08;1.75;;;;;;;10.95;100.00;99803.13;6296976;28;20049;-72
2022/09/13 01:40:28;;;;;;;;;;;;;;;10.98;100.00;99795.09;6297469;28;20040;-70
2022/09/13 01:43:56;;;;;;;1.70;1.42;;;;;;;10.92;100.00;99796.34;6296366;28;19920;-70
2022/09/13 01:47:06;;;;;;;2.05;1.70;;;;;;;11.06;100.00;99787.59;6296545;28;20048;-70
2022/09/13 01:50:41;;;;;;;2.00;1.80;;;;;;;11.09;100.00;99796.03;6296491;28;20091;-70
2022/09/13 01:53:56;;;;;;;7.40;1.90;;;;;;;11.13;100.00;99795.84;6292398;28;20090;-71
2022/09/13 01:57:15;;;;;;;2.50;1.63;;;;;;;11.14;100.00;99800.09;6296274;28;20041;-70
2022/09/13 02:00:17;;;;;;;2.03;1.67;;;;;;;11.12;100.00;99801.97;6296462;28;20041;-71
2022/09/13 02:03:30;;;;;;;2.65;2.03;;;;;;;11.08;100.00;99807.44;6296311;28;20486;-70
2022/09/13 02:06:41;;;;;;;1.55;1.45;;;;;;;11.05;100.00;99798.94;6295259;28;20048;-72
2022/09/13 02:09:55;;;;;;;2.45;1.98;;;;;;;10.97;100.00;99796.03;6295215;28;20039;-69
2022/09/13 02:12:57;;;;;;;2.00;1.52;;;;;;;11.09;100.00;99803.03;6294217;28;20145;-72
2022/09/13 02:16:07;;;;;;;3.67;2.17;;;;;;;11.12;100.00;99801.97;6296837;28;20045;-72
2022/09/13 02:19:13;;;;;;;2.20;1.85;;;;;;;11.10;100.00;99804.72;6295403;28;20045;-72
2022/09/13 02:22:20;;;;;;;3.53;2.08;;;;;;;11.19;100.00;99791.03;6295186;28;20045;-70
2022/09/13 02:25:24;;;;;;;3.83;2.00;;;;;;;11.32;100.00;99801.47;6295290;28;20052;-72
2022/09/13 02:28:35;;;;;;;2.88;2.28;;;;;;;11.28;100.00;99803.47;6296677;28;20048;-72
2022/09/13 02:31:44;;;;;;;2.78;1.98;;;;;;;11.26;100.00;99792.28;6296200;28;20048;-70
2022/09/13 02:34:52;;;;;;;1.75;1.63;;;;;;;11.29;100.00;99801.69;6296509;28;20053;-72
2022/09/13 02:38:02;;;;;;;4.22;2.40;;;;;;;11.29;100.00;99788.63;6296107;28;20504;-71
2022/09/13 02:41:14;;;;;;;2.50;2.00;;;;;;;11.24;100.00;99790.72;6296200;28;20070;-72
2022/09/13 02:44:31;;;;;;;2.65;2.10;;;;;;;11.23;100.00;99789.88;6295761;28;20528;-70
2022/09/13 02:47:43;;;;;;;2.20;1.85;;;;;;;11.23;100.00;99797.72;6296294;28;20048;-72
2022/09/13 02:50:53;;;;;;;;;;;;;;;11.19;100.00;99801.47;6294989;28;20040;-70
2022/09/13 02:54:14;;;;;;;2.92;1.85;;;;;;;11.11;100.00;99789.88;6295620;28;20473;-70
2022/09/13 02:57:28;;;;;;;3.78;2.42;;;;;;;11.04;100.00;99794.69;6295563;28;20457;-70
2022/09/13 03:00:31;;;;;;;3.25;2.13;;;;;;;10.96;100.00;99794.38;6295499;28;20075;-70
2022/09/13 03:03:32;;;;;;;4.93;2.60;;;;;;;10.97;100.00;99801.25;6294603;28;20064;-71
2022/09/13 03:06:33;;;;;;;3.17;1.90;;;;;;;10.89;100.00;99800.00;6299234;28;20047;-70
2022/09/13 03:09:36;;;;;;;3.58;2.60;;;;;;;10.85;100.00;99795.06;6299374;28;20053;-70
2022/09/13 03:12:54;;;;;;;4.30;2.85;;;;;;;10.90;100.00;99800.81;6315589;28;20048;-70
2022/09/13 03:16:09;;;;;;;3.15;2.05;;;;;;;10.86;100.00;99794.97;6299380;28;20390;-72
2022/09/13 03:19:33;;;;;;;4.38;2.08;;;;;;;10.82;100.00;99803.94;6299981;28;20045;-70
2022/09/13 03:22:52;;;;;;;2.53;1.98;;;;;;;10.86;100.00;99797.56;6299069;28;20051;-72
2022/09/13 03:26:05;;;;;;;3.90;2.28;;;;;;;10.80;100.00;99794.53;6300457;28;20036;-70
2022/09/13 03:29:51;;;;;;;4.70;2.42;;;;;;;10.85;100.00;99782.84;6298525;28;20516;-70
2022/09/13 03:33:24;;;;;;;2.63;2.08;;;;;;;10.90;100.00;99790.38;6300237;28;20051;-71
2022/09/13 03:36:45;;;;;;;3.90;2.22;;;;;;;10.83;100.00;99792.56;6297952;28;20057;-72
2022/09/13 03:40:02;;;;;;;4.75;2.47;;;;;;;10.85;100.00;99787.22;6333033;28;20054;-72
2022/09/13 03:43:19;;;;;;;2.97;2.38;;;;;;;10.93;100.00;99795.38;6299024;28;20044;-72
2022/09/13 03:46:29;;;;;;;2.80;1.90;;;;;;;10.92;100.00;99796.34;6298634;28;20067;-70
2022/09/13 03:49:31;;;;;;;5.20;2.90;;;;;;;10.83;100.00;99795.19;6299310;28;20135;-70
2022/09/13 03:52:32;;;;;;;4.97;2.47;;;;;;;10.84;100.00;99799.44;6299648;28;20070;-72
2022/09/13 03:55:38;;;;;;;3.55;2.65;;;;;;;10.88;100.00;99792.25;6280875;28;20098;-72
2022/09/13 03:58:38;;;;;;;3.13;2.60;;;;;;;10.93;100.00;99800.59;6296829;28;20119;-72
2022/09/13 04:01:39;;;;;;;3.67;2.78;;;;;;;10.99;100.00;99794.97;6299663;28;20400;-70
2022/09/13 04:04:44;;;;;;;8.27;2.97;;;;;;;10.91;100.00;99797.25;6299030;28;20049;-72
2022/09/13 04:07:44;;;;;;;3.25;2.70;;;;;;;10.91;100.00;99789.41;6299587;28;20052;-72
2022/09/13 04:10:49;;;;;;;3.75;2.67;;;;;;;10.99;100.00;99796.75;6300373;28;20044;-72
2022/09/13 04:13:50;;;;;;;4.07;2.97;;;;;;;10.93;100.00;99792.78;6318009;28;20074;-72
2022/09/13 04:16:55;;;;;;;4.03;3.03;;;;;;;11.02;100.00;99788.72;6313775;28;20042;-71
2022/09/13 04:19:58;;;;;;;5.82;3.60;;;;;;;10.93;100.00;99787.53;6333259;28;20048;-72
2022/09/13 04:22:59;;;;;;;3.33;2.60;;;;;;;10.99;100.00;99794.13;6324483;28;20519;-70
2022/09/13 04:26:01;;;;;;;3.60;2.65;;;;;;;11.04;100.00;99779.03;6316523;28;20045;-70
2022/09/13 04:29:04;;;;;;;3.60;2.67;;;;;;;11.09;100.00;99776.91;6297182;28;20051;-70
2022/09/13 04:32:05;;;;;;;4.82;2.80;;;;;;;11.08;100.00;99775.25;6298511;28;20068;-72
2022/09/13 04:35:07;;;;;;;4.43;2.70;;;;;;;11.02;100.00;99773.91;6297974;28;20503;-72
2022/09/13 04:38:08;;;;;;;5.47;3.00;;;;;;;11.11;100.00;99771.59;6298811;28;20063;-72
2022/09/13 04:41:09;;;;;;;3.42;2.58;;;;;;;11.17;100.00;99773.78;6307568;28;20135;-72
2022/09/13 04:44:10;;;;;;;3.58;2.50;;;;;;;11.15;100.00;99768.66;6323693;28;20499;-72
2022/09/13 04:47:11;;;;;;;4.05;2.60;;;;;;;11.16;100.00;99767.75;6322650;28;20048;-72
2022/09/13 04:50:13;;;;;;;3.50;2.72;;;;;;;11.19;100.00;99764.91;6356479;27;20040;-72
2022/09/13 04:53:13;;;;;;;4.47;3.00;;;;;;;11.20;100.00;99773.56;6321765;28;20036;-70
2022/09/13 04:56:18;;;;;;;7.70;2.75;;;;;;;11.27;100.00;99770.44;6320644;28;20515;-70
2022/09/13 04:59:19;;;;;;;3.22;2.50;;;;;;;11.17;100.00;99776.41;6322700;28;20126;-70
2022/09/13 05:02:19;;;;;;;4.93;2.42;;;;;;;11.26;100.00;99767.94;6322754;28;20051;-71
2022/09/13 05:05:20;;;;;;;3.38;2.25;;;;;;;11.23;100.00;99765.53;6300078;28;20085;-72
2022/09/13 05:08:21;;;;;;;4.60;2.65;;;;;;;11.42;100.00;99768.56;6302391;28;20500;-71
2022/09/13 05:11:23;;;;;;;3.70;2.72;;;;;;;11.54;100.00;99773.88;6313458;28;20079;-73
2022/09/13 05:14:24;;;;;;;;;;;;;;;11.60;100.00;99781.31;6295382;28;20048;-74
2022/09/13 05:17:25;;;;;;;3.35;2.50;;;;;;;11.82;100.00;99788.44;6309040;28;19924;-71
2022/09/13 05:20:26;;;;;;;3.10;2.45;;;;;;;11.88;100.00;99785.41;6323048;28;20047;-74
2022/09/13 05:23:29;;;;;;;5.50;2.80;;;;;;;11.99;100.00;99792.53;6283427;28;20052;-73
2022/09/13 05:26:30;;;;;;;6.43;3.20;;;;;;;11.99;100.00;99796.00;6321995;28;20066;-71
2022/09/13 05:29:30;;;;;;;4.28;2.88;;;;;;;12.17;100.00;99786.00;6322347;28;20127;-73
2022/09/13 05:32:36;;;;;;;8.25;3.30;;;;;;;12.33;100.00;99796.16;6322241;28;20050;-71
2022/09/13 05:35:39;;;;;;;4.07;2.42;;;;;;;12.37;100.00;99797.63;6311538;28;20048;-71
2022/09/13 05:38:40;;;;;;;3.00;2.30;;;;;;;12.55;100.00;99800.69;6295897;28;20044;-71
2022/09/13 05:41:41;;;;;;;3.50;2.58;;;;;;;12.78;100.00;99804.22;6295455;28;20051;-74
2022/09/13 05:44:44;;;;;;;4.68;2.00;;;;;;;12.80;100.00;99802.31;6295668;28;20403;-73
2022/09/13 05:47:49;;;;;;;7.35;2.13;;;;;;;13.14;100.00;99804.19;6314579;28;20388;-71
2022/09/13 05:50:50;;;;;;;2.88;1.92;;;;;;;13.25;100.00;99799.00;6319009;28;20097;-72
2022/09/13 05:53:52;;;;;;;4.43;2.25;;;;;;;13.36;97.73;99806.06;6308530;28;20114;-74
2022/09/13 05:56:56;;;;;;;1.90;1.67;;;;;;;13.45;94.80;99808.81;6308058;28;20040;-73
2022/09/13 05:59:59;;;;;;;2.90;1.73;;;;;;;13.44;95.70;99803.69;6298241;28;20060;-74
2022/09/13 06:03:02;;;;;;;2.90;2.10;;;;;;;13.63;95.65;99797.84;6303002;28;20097;-74
2022/09/13 06:06:04;;;;;;;2.85;2.08;;;;;;;13.82;94.85;99795.47;6306940;28;20032;-71
2022/09/13 06:09:07;;;;;;;;;;;;;;;14.05;93.70;99796.25;6310006;28;20051;-71
2022/09/13 06:12:10;;;;;;;4.88;2.10;;;;;;;14.10;95.47;99788.03;6348434;27;20015;-74
2022/09/13 06:15:11;;;;;;;2.63;2.00;;;;;;;14.17;91.20;99802.34;6315694;28;20044;-74
2022/09/13 06:18:11;;;;;;;3.33;2.40;;;;;;;14.38;93.70;99788.44;6319717;28;20119;-71
2022/09/13 06:21:20;;;;;;;2.65;2.08;;;;;;;14.42;88.71;99792.47;6318513;28;20139;-73
2022/09/13 06:24:20;;;;;;;2.38;1.70;;;;;;;14.51;87.64;99794.34;6301868;28;20082;-73
2022/09/13 06:27:24;;;;;;;3.03;1.80;;;;;;;14.56;84.30;99797.47;6308478;28;20040;-73
2022/09/13 06:30:27;;;;;;;1.83;1.58;;;;;;;14.73;83.00;99798.72;6298503;28;20052;-73
2022/09/13 06:33:30;;;;;;;2.28;1.70;;;;;;;14.80;81.35;99794.59;6318402;28;20142;-73
2022/09/13 06:36:33;;;;;;;1.67;1.38;;;;;;;14.90;79.77;99802.56;6301454;28;20530;-73
2022/09/13 06:39:34;;;;;;;3.90;1.60;;;;;;;15.00;80.13;99803.47;6321617;28;20492;-73
2022/09/13 06:42:35;;;;;;;4.97;1.70;;;;;;;15.08;78.02;99801.03;6323460;28;20082;-72
2022/09/13 06:45:36;;;;;;;3.10;1.50;;;;;;;15.02;75.40;99791.03;6288543;28;20504;-72
2022/09/13 06:48:39;;;;;;;2.03;1.30;;;;;;;15.23;75.84;99800.69;6298289;28;20048;-71
2022/09/13 06:51:40;;;;;;;1.25;1.08;;;;;;;15.35;73.58;99804.09;6299287;28;20040;-72
2022/09/13 06:54:41;;;;;;;1.58;1.30;;;;;;;15.49;73.50;99806.38;6311454;28;20047;-74
2022/09/13 06:57:41;;;;;;;1.23;1.13;;;;;;;15.73;74.08;99802.63;6306165;28;20044;-71
2022/09/13 07:00:42;;;;;;;2.08;1.60;;;;;;;15.75;74.29;99803.31;6323003;28;20496;-71
2022/09/13 07:03:46;;;;;;;2.70;1.60;;;;;;;16.03;71.01;99814.91;6299277;28;20048;-71
2022/09/13 07:06:48;;;;;;;2.38;1.67;;;;;;;16.09;69.39;99811.75;6298904;28;20402;-71
2022/09/13 07:09:49;;;;;;;4.20;1.90;;;;;;;16.23;70.87;99816.63;6299320;28;20127;-71
2022/09/13 07:12:50;;;;;;;1.83;1.30;;;;;;;16.24;68.67;99827.97;6297513;28;20507;-74
2022/09/13 07:15:50;;;;;;;2.13;1.40;;;;;;;16.44;70.92;99826.22;6314404;28;20063;-73
2022/09/13 07:19:04;;;;;;;2.10;1.38;;;;;;;16.69;68.91;99830.94;6298791;28;20481;-73
2022/09/13 07:22:05;;;;;;;2.58;1.60;;;;;;;16.67;67.86;99839.97;6323831;28;20058;-71
2022/09/13 07:25:07;;;;;;;2.28;1.60;;;;;;;16.80;68.77;99839.69;6322649;28;20044;-73
2022/09/13 07:28:07;;;;;;;2.30;1.27;;;;;;;16.89;66.59;99846.78;6323751;28;20048;-71
2022/09/13 07:31:20;;;;;;;4.30;1.90;;;;;;;17.05;64.92;99840.97;6314125;28;20059;-71
2022/09/13 07:34:23;;;;;;;3.97;1.55;;;;;;;16.51;65.64;99843.13;6298387;28;20048;-71
2022/09/13 07:37:24;;;;;;;4.57;1.60;;;;;;;17.00;63.75;99838.72;6298184;28;20041;-72
2022/09/13 07:40:25;;;;;;;2.83;1.77;;;;;;;17.25;62.63;99842.56;6299531;28;20044;-71
2022/09/13 07:43:26;;;;;;;3.33;1.50;;;;;;;17.35;61.44;99839.91;6298895;28;20852;-71
2022/09/13 07:46:32;;;;;;;2.23;1.33;;;;;;;17.58;60.15;99848.31;6313209;28;20422;-72
2022/09/13 07:49:36;;;;;;;2.30;1.30;;;;;;;17.72;58.52;99845.22;6322503;28;20052;-74
2022/09/13 07:52:36;;;;;;;1.98;1.15;;;;;;;17.81;61.18;99845.31;6321915;28;20488;-71
2022/09/13 07:55:37;;;;;;;1.58;1.40;;;;;;;17.96;59.20;99853.66;6317080;28;20058;-74
2022/09/13 07:58:40;;;;;;;2.55;1.70;;;;;;;18.26;57.89;99853.34;6321828;28;20040;-74
2022/09/13 08:01:43;;;;;;;3.13;1.52;;;;;;;18.53;58.74;99851.63;6304821;28;20429;-72
2022/09/13 08:04:43;;;;;;;2.35;1.45;;;;;;;18.99;55.61;99856.88;6321579;28;20047;-71
2022/09/13 08:07:44;;;;;;;4.25;1.88;;;;;;;18.89;56.17;99844.56;6322659;28;20048;-72
2022/09/13 08:10:45;;;;;;;3.05;1.58;;;;;;;18.79;54.65;99861.50;6321349;28;20047;-71
2022/09/13 08:13:47;;;;;;;2.40;1.30;;;;;;;18.60;56.92;99851.88;6321614;28;20109;-71
2022/09/13 08:16:47;;;;;;;2.60;1.70;;;;;;;18.63;56.01;99855.03;6321189;28;20060;-72
2022/09/13 08:19:48;;;;;;;2.80;1.70;;;;;;;18.42;53.97;99857.13;6322468;28;20090;-74
2022/09/13 08:22:49;;;;;;;4.25;1.75;;;;;;;18.48;55.51;99859.19;6355420;27;20040;-73
2022/09/13 08:25:50;;;;;;;2.20;1.25;;;;;;;18.33;54.47;99851.78;6320866;28;20055;-74
2022/09/13 08:28:56;;;;;;;1.40;1.10;;;;;;;18.44;58.98;99849.91;6319461;28;20051;-73
2022/09/13 08:31:57;;;;;;;2.33;1.58;;;;;;;18.61;60.75;99857.00;6295785;28;20512;-71
2022/09/13 08:34:57;;;;;;;3.55;1.30;;;;;;;18.62;56.82;99849.91;6295756;28;20094;-74
2022/09/13 08:38:01;;;;;;;2.33;1.38;;;;;;;18.81;55.40;99856.91;6297471;28;20051;-73
2022/09/13 08:41:18;;;;;;;2.08;1.42;;;;;;;18.91;56.24;99857.66;6311177;28;20627;-73
2022/09/13 08:44:44;;;;;;;2.53;1.33;;;;;;;19.06;54.20;99847.34;6302738;28;20052;-74
2022/09/13 08:48:10;;;;;;;1.63;1.30;;;;;;;19.24;51.08;99847.31;6310706;28;20102;-74
2022/09/13 08:51:36;;;;;;;1.95;1.20;;;;;;;19.41;54.79;99843.78;6294654;28;20102;-74
2022/09/13 08:54:37;;;;;;;1.35;1.20;;;;;;;19.01;54.16;99845.16;6294544;28;20560;-74
2022/09/13 08:57:47;;;;;;;2.72;1.45;;;;;;;19.21;52.90;99848.47;6294153;28;20090;-73
2022/09/13 09:01:13;;;;;;;1.27;1.17;;;;;;;19.07;53.50;99852.50;6277750;28;20056;-74
2022/09/13 09:04:26;;;;;;;2.25;1.52;;;;;;;19.77;54.68;99851.66;6294501;28;20048;-71
2022/09/13 09:07:38;;;;;;;2.65;1.58;;;;;;;20.08;52.12;99844.00;6295903;28;20123;-71
2022/09/13 09:10:47;;;;;;;3.72;1.60;;;;;;;19.86;51.76;99842.75;6295963;28;20037;-71
2022/09/13 09:14:21;;;;;;;1.52;1.35;;;;;;;20.05;50.70;99836.34;6295905;28;20052;-71
2022/09/13 09:17:44;;;;;;;1.20;1.10;;;;;;;19.76;49.68;99834.09;6281071;28;20048;-74
2022/09/13 09:20:47;;;;;;;3.83;1.42;;;;;;;20.18;54.07;99840.38;6288205;28;20420;-73
2022/09/13 09:23:52;;;;;;;1.58;1.33;;;;;;;19.65;50.04;99837.00;6295537;28;20472;-72
2022/09/13 09:26:58;;;;;;;2.45;1.35;;;;;;;20.04;49.32;99832.06;6294320;28;20051;-71
2022/09/13 09:30:03;;;;;;;4.38;1.27;;;;;;;20.15;53.86;99830.13;6294345;28;20492;-71
2022/09/13 09:33:03;;;;;;;4.50;1.20;;;;;;;20.26;52.43;99825.34;6277473;28;20051;-73
2022/09/13 09:36:19;;;;;;;1.33;1.10;;;;;;;20.22;45.79;99815.22;6327908;28;20049;-74
2022/09/13 09:39:26;;;;;;;2.47;1.30;;;;;;;20.62;46.05;99818.97;6327692;28;20106;-74
2022/09/13 09:42:31;;;;;;;1.77;1.20;;;;;;;20.87;49.49;99822.47;6295217;28;20050;-74
2022/09/13 09:45:34;;;;;;;2.38;1.35;;;;;;;20.80;45.14;99816.19;6293722;28;20056;-72
2022/09/13 09:48:43;;;;;;;3.20;1.15;;;;;;;20.77;45.48;99816.50;6293764;28;20401;-71
2022/09/13 09:51:44;;;;;;;1.60;1.20;;;;;;;20.28;48.53;99809.28;6293977;28;20041;-72
2022/09/13 09:54:50;;;;;;;3.42;1.35;;;;;;;21.21;44.81;99811.66;6310459;28;20048;-72
2022/09/13 09:57:57;;;;;;;9.43;1.48;;;;;;;21.58;46.09;99817.41;6293473;28;20048;-71
2022/09/13 10:01:00;;;;;;;3.10;1.55;;;;;;;21.80;44.78;99811.34;6293465;28;20531;-72
2022/09/13 10:04:10;;;;;;;1.65;1.15;;;;;;;21.29;43.97;99797.53;6294801;28;20132;-71
2022/09/13 10:07:33;;;;;;;1.40;1.23;;;;;;;21.20;43.77;99798.56;6276708;28;20051;-72
2022/09/13 10:10:56;;;;;;;2.35;1.30;;;;;;;21.42;45.85;99799.69;6293580;28;20059;-74
2022/09/13 10:13:59;;;;;;;1.60;1.30;;;;;;;21.71;43.03;99799.13;6294302;28;20115;-74
2022/09/13 10:17:04;;;;;;;1.43;1.33;;;;;;;21.80;43.11;99800.72;6310129;28;20517;-74
2022/09/13 10:20:13;;;;;;;2.42;1.40;;;;;;;21.20;42.53;99787.97;6294634;28;20047;-74
2022/09/13 10:23:18;;;;;;;2.72;1.30;;;;;;;21.32;44.07;99787.41;6294619;28;20048;-74
2022/09/13 10:26:22;;;;;;;1.83;1.17;;;;;;;21.42;42.50;99786.41;6293413;28;20504;-72
2022/09/13 10:29:26;;;;;;;4.93;1.70;;;;;;;21.87;43.59;99787.63;6327587;28;20049;-72
2022/09/13 10:32:28;;;;;;;2.15;1.30;;;;;;;21.86;42.77;99784.09;6294129;28;20136;-74
2022/09/13 10:35:29;;;;;;;2.40;1.20;;;;;;;22.10;41.09;99779.69;6293299;28;20399;-71
2022/09/13 10:38:39;;;;;;;1.63;1.02;;;;;;;22.31;42.72;99779.91;6296271;28;20037;-74
2022/09/13 10:41:41;;;;;;;10.43;1.40;;;;;;;22.37;45.05;99778.38;6304797;28;20040;-72
2022/09/13 10:44:43;;;;;;;;;;;;;;;22.09;42.41;99775.34;6317131;28;20048;-72
2022/09/13 10:47:46;;;;;;;;;;;;;;;21.99;43.22;99775.59;6306448;28;19963;-74
2022/09/13 10:51:17;;;;;;;0.85;0.82;;;;;;;21.79;42.41;99772.53;6302640;28;20124;-71
2022/09/13 10:54:18;;;;;;;1.30;0.90;;;;;;;21.56;40.23;99768.97;6299951;28;20083;-72
2022/09/13 10:57:35;;;;;;;1.55;1.02;;;;;;;21.65;41.22;99768.78;6318563;28;20458;-71
2022/09/13 11:01:12;;;;;;;1.40;0.98;;;;;;;21.98;42.34;99762.47;6312558;28;20521;-74
2022/09/13 11:04:44;;;;;;;1.35;0.90;;;;;;;22.62;42.51;99751.59;6299133;28;20052;-74
2022/09/13 11:08:11;;;;;;;1.35;1.00;;;;;;;22.23;40.88;99748.06;6293889;28;20048;-74
2022/09/13 11:11:34;;;;;;;1.65;1.10;;;;;;;21.65;41.50;99749.38;6294052;28;20088;-72
2022/09/13 11:14:43;;;;;;;3.90;1.67;;;;;;;22.16;43.84;99752.41;6308970;28;20052;-74
2022/09/13 11:18:02;;;;;;;1.50;1.20;;;;;;;22.50;41.41;99736.06;6309752;28;20412;-74
2022/09/13 11:21:28;;;;;;;2.47;1.30;;;;;;;21.96;42.55;99744.06;6309848;28;20079;-74
2022/09/13 11:25:06;;;;;;;2.08;1.00;;;;;;;21.53;41.65;99733.81;6293874;28;20492;-72
2022/09/13 11:28:37;;;;;;;1.00;0.82;;;;;;;22.05;43.07;99729.75;6298529;28;20102;-73
2022/09/13 11:31:52;;;;;;;1.40;0.90;;;;;;;22.18;43.37;99737.13;6297462;28;20512;-74
2022/09/13 11:35:26;;;;;;;1.83;1.08;;;;;;;22.65;42.00;99736.13;6298514;28;20048;-71
2022/09/13 11:38:49;;;;;;;1.13;1.02;;;;;;;23.21;41.55;99726.97;6298037;28;20076;-71
2022/09/13 11:41:49;;;;;;;;;;;;;;;23.28;42.21;99725.19;6298702;28;20477;-72
2022/09/13 11:45:01;;;;;;;2.55;1.20;;;;;;;22.19;39.21;99719.34;6297863;28;19920;-72
2022/09/13 11:48:11;;;;;;;;;;;;;;;22.03;40.33;99721.13;6297257;28;20044;-71
2022/09/13 11:52:03;;;;;;;1.42;0.95;;;;;;;21.80;45.24;99720.25;6297635;28;19927;-71
2022/09/13 11:55:25;;;;;;;1.93;0.77;;;;;;;20.95;43.10;99713.72;6228849;28;20052;-72
2022/09/13 11:58:34;;;;;;;1.75;1.13;;;;;;;21.33;44.15;99708.63;6235894;28;20308;-71
2022/09/13 12:01:48;;;;;;;1.05;0.90;;;;;;;21.30;42.66;99704.50;6297906;28;20043;-74
2022/09/13 12:05:14;;;;;;;1.67;1.00;;;;;;;21.56;42.31;99705.25;6333514;27;20044;-74
2022/09/13 12:08:26;;;;;;;1.30;0.95;;;;;;;22.64;43.31;99699.06;6307676;28;20495;-74
2022/09/13 12:11:32;;;;;;;2.42;0.95;;;;;;;22.53;40.09;99701.16;6305729;28;20039;-72
2022/09/13 12:14:57;;;;;;;1.83;1.15;;;;;;;22.15;42.33;99697.59;6307982;28;20033;-74
2022/09/13 12:18:04;;;;;;;3.33;1.13;;;;;;;21.73;43.79;99701.53;6294886;28;20063;-72
2022/09/13 12:21:11;;;;;;;1.05;0.95;;;;;;;21.94;44.75;99699.06;6297203;28;20040;-74
2022/09/13 12:24:39;;;;;;;3.33;1.88;;;;;;;21.93;44.21;99701.94;6296198;28;20472;-71
2022/09/13 12:27:47;;;;;;;2.25;1.30;;;;;;;22.17;43.17;99689.47;6279217;28;20052;-75
2022/09/13 12:30:56;;;;;;;1.70;0.90;;;;;;;21.87;40.00;99694.66;6297069;28;20420;-71
2022/09/13 12:33:58;;;;;;;1.33;1.10;;;;;;;21.96;43.91;99696.25;6295713;28;20448;-74
2022/09/13 12:37:08;;;;;;;1.92;1.20;;;;;;;21.84;43.55;99695.81;6297397;28;20056;-74
2022/09/13 12:40:28;;;;;;;0.93;0.82;;;;;;;22.17;42.66;99686.81;6316004;27;20417;-74
2022/09/13 12:43:44;;;;;;;0.95;0.80;;;;;;;22.27;41.74;99679.44;6300585;28;20055;-74
2022/09/13 12:47:17;;;;;;;1.25;0.90;;;;;;;22.24;43.06;99688.63;6296677;28;20039;-73
2022/09/13 12:50:43;;;;;;;1.40;1.10;;;;;;;21.79;43.45;99689.41;6278498;28;20102;-75
2022/09/13 12:54:15;;;;;;;0.98;0.85;;;;;;;22.37;43.41;99689.84;6296409;28;20032;-74
2022/09/13 12:57:45;;;;;;;0.75;0.75;;;;;;;22.51;42.99;99691.72;6328977;28;20044;-74
2022/09/13 13:01:16;;;;;;;10.30;1.10;;;;;;;22.38;42.04;99686.97;6289317;28;20501;-74
2022/09/13 13:04:21;;;;;;;1.10;0.90;;;;;;;22.39;41.07;99678.03;6296159;28;20221;-73
2022/09/13 13:07:23;;;;;;;1.13;0.93;;;;;;;22.18;41.61;99678.66;6296419;28;20111;-74
2022/09/13 13:10:34;;;;;;;1.70;0.95;;;;;;;22.14;42.92;99674.72;6294634;28;20424;-74
2022/09/13 13:13:41;;;;;;;1.67;1.15;;;;;;;22.31;42.26;99681.56;6294717;28;20060;-74
2022/09/13 13:16:47;;;;;;;1.90;1.10;;;;;;;22.44;42.73;99672.16;6328390;28;20139;-74
2022/09/13 13:19:47;;;;;;;1.52;1.00;;;;;;;22.39;41.45;99675.38;6294458;28;20072;-75
2022/09/13 13:22:52;;;;;;;1.60;1.00;;;;;;;22.10;42.92;99678.72;6277895;28;20044;-72
2022/09/13 13:26:17;;;;;;;0.82;0.77;;;;;;;22.07;42.42;99677.25;6311254;28;20139;-74
2022/09/13 13:29:22;;;;;;;2.40;0.93;;;;;;;22.12;43.29;99674.06;6295567;28;20533;-74
2022/09/13 13:32:23;;;;;;;0.90;0.90;;;;;;;22.41;42.45;99668.03;6294399;28;20048;-74
2022/09/13 13:35:31;;;;;;;2.93;1.33;;;;;;;22.28;42.10;99666.00;6295504;28;20128;-74
2022/09/13 13:38:35;;;;;;;1.20;0.93;;;;;;;22.68;42.64;99660.47;6295668;28;20036;-72
2022/09/13 13:41:58;;;;;;;1.85;1.17;;;;;;;22.96;40.68;99651.84;6295859;28;20063;-74
2022/09/13 13:44:59;;;;;;;0.95;0.80;;;;;;;23.08;43.34;99653.94;6294893;28;20582;-72
2022/09/13 13:48:13;;;;;;;2.83;1.20;;;;;;;22.63;40.00;99657.53;6293434;28;20052;-72
2022/09/13 13:51:20;;;;;;;0.88;0.60;;;;;;;22.74;40.45;99654.44;6295164;28;20036;-74
2022/09/13 13:54:30;;;;;;;0.98;0.88;;;;;;;22.67;43.42;99642.84;6293778;28;20045;-71
2022/09/13 13:57:39;;;;;;;2.28;1.10;;;;;;;22.68;41.23;99637.38;6294934;28;20482;-73
2022/09/13 14:00:49;;;;;;;2.65;1.08;;;;;;;22.39;41.27;99640.00;6306128;28;20048;-71
2022/09/13 14:04:32;;;;;;;1.17;1.00;;;;;;;21.94;39.42;99640.63;6294940;28;20040;-71
2022/09/13 14:07:58;;;;;;;2.60;0.80;;;;;;;21.99;41.37;99633.97;6281317;28;20079;-73
2022/09/13 14:11:17;;;;;;;1.30;0.82;;;;;;;22.01;41.65;99631.97;6319916;28;20117;-74
2022/09/13 14:14:29;;;;;;;1.35;0.90;;;;;;;21.92;39.85;99620.56;6318775;28;20044;-74
2022/09/13 14:17:36;;;;;;;1.85;0.75;;;;;;;22.40;40.63;99615.06;6294871;28;20097;-74
2022/09/13 14:20:37;;;;;;;4.25;0.85;;;;;;;22.24;42.63;99616.88;6310193;28;20052;-74
2022/09/13 14:23:37;;;;;;;2.23;0.80;;;;;;;22.23;41.36;99614.34;6276736;28;20056;-74
2022/09/13 14:26:39;;;;;;;1.33;0.90;;;;;;;22.08;40.14;99614.31;6293418;28;20055;-73
2022/09/13 14:29:44;;;;;;;1.08;0.82;;;;;;;22.31;40.19;99614.31;6293215;28;20113;-74
2022/09/13 14:32:48;;;;;;;2.40;1.02;;;;;;;22.32;40.36;99619.44;6293676;28;20044;-73
2022/09/13 14:36:00;;;;;;;1.10;0.93;;;;;;;22.02;40.48;99618.50;6281382;28;20059;-74
2022/09/13 14:39:10;;;;;;;1.30;0.73;;;;;;;21.97;40.64;99623.53;6315431;28;20052;-73
2022/09/13 14:42:14;;;;;;;0.63;0.50;;;;;;;22.14;41.17;99613.59;6297804;28;20036;-72
2022/09/13 14:45:19;;;;;;;0.93;0.82;;;;;;;22.19;41.08;99616.53;6297929;28;20067;-71